Time;durP1;ratioP1;P1;durP2;ratioP2;P2;SDS_P1;SDS_P2;PMS_P1;PMS_P2;Temp;Humidity;BMP_temperature;BMP_pressure;BME280_temperature;BME280_humidity;BME280_pressure;Samples;Min_cycle;Max_cycle;Signal;HPM_P1;HPM_P2
2022/01/10 00:02:04;;;;;;;4.93;2.50;;;6.10;99.90;;;;;;5071786;28;20503;-78
2022/01/10 00:04:30;;;;;;;3.23;2.17;;;6.10;99.90;;;;;;5071347;28;20200;-75
2022/01/10 00:06:56;;;;;;;4.73;3.00;;;6.10;99.90;;;;;;5070790;28;20260;-75
2022/01/10 00:09:22;;;;;;;4.40;3.17;;;6.10;99.90;;;;;;5068426;28;20211;-74
2022/01/10 00:11:48;;;;;;;7.60;3.13;;;6.00;99.90;;;;;;5067858;28;20173;-75
2022/01/10 00:14:14;;;;;;;5.30;2.40;;;6.00;99.90;;;;;;5067628;28;20225;-78
2022/01/10 00:16:40;;;;;;;4.17;2.40;;;6.00;99.90;;;;;;5069511;28;20228;-78
2022/01/10 00:19:06;;;;;;;5.07;2.60;;;6.10;99.90;;;;;;5068926;28;20196;-75
2022/01/10 00:21:32;;;;;;;8.73;2.60;;;6.10;99.90;;;;;;5068359;28;20235;-75
2022/01/10 00:23:58;;;;;;;3.63;2.70;;;6.10;99.90;;;;;;5069417;28;20211;-74
2022/01/10 00:26:24;;;;;;;4.67;2.63;;;6.10;99.90;;;;;;5071942;28;20199;-79
2022/01/10 00:28:50;;;;;;;6.03;3.20;;;6.10;99.90;;;;;;5070599;28;20648;-74
2022/01/10 00:31:16;;;;;;;6.07;3.37;;;6.10;99.90;;;;;;5087867;28;20571;-79
2022/01/10 00:33:42;;;;;;;4.93;2.97;;;6.10;99.90;;;;;;5037533;28;20210;-74
2022/01/10 00:36:08;;;;;;;5.63;2.80;;;6.10;99.90;;;;;;5070414;28;20277;-76
2022/01/10 00:38:34;;;;;;;5.33;3.00;;;5.90;99.90;;;;;;5054394;28;20262;-78
2022/01/10 00:41:00;;;;;;;5.17;3.20;;;6.00;99.90;;;;;;5072252;28;20192;-74
2022/01/10 00:43:35;;;;;;;6.40;3.17;;;5.90;99.90;;;;;;5072005;28;20678;-75
2022/01/10 00:46:03;;;;;;;6.73;3.30;;;5.60;99.90;;;;;;5070216;28;20294;-79
2022/01/10 00:48:29;;;;;;;5.33;2.93;;;5.90;99.90;;;;;;5072163;28;20208;-76
2022/01/10 00:50:55;;;;;;;8.27;3.37;;;5.90;99.90;;;;;;5037619;28;20964;-74
2022/01/10 00:53:20;;;;;;;6.63;3.13;;;5.90;99.90;;;;;;5053730;28;20521;-81
2022/01/10 00:55:47;;;;;;;6.73;3.50;;;6.00;99.90;;;;;;5071900;28;20299;-78
2022/01/10 00:58:13;;;;;;;5.10;3.20;;;5.90;99.90;;;;;;5070992;28;20228;-79
2022/01/10 01:00:38;;;;;;;4.67;2.90;;;5.90;99.90;;;;;;5053971;28;20251;-79
2022/01/10 01:03:04;;;;;;;6.73;3.07;;;6.00;99.90;;;;;;5070612;28;20192;-74
2022/01/10 01:05:33;;;;;;;4.97;2.60;;;6.00;99.90;;;;;;5053484;28;20215;-79
2022/01/10 01:08:03;;;;;;;7.03;2.70;;;6.10;99.90;;;;;;5071358;28;20291;-76
2022/01/10 01:19:06;;;;;;;7.23;3.10;;;6.10;99.90;;;;;;5055474;28;20208;-80
2022/01/10 01:24:09;;;;;;;7.03;3.10;;;6.10;99.90;;;;;;5071493;28;20215;-76
2022/01/10 01:26:45;;;;;;;5.03;2.90;;;6.10;99.90;;;;;;5069873;28;20208;-79
2022/01/10 01:29:14;;;;;;;3.77;2.77;;;6.10;99.90;;;;;;5036803;28;20207;-75
2022/01/10 01:31:41;;;;;;;10.40;3.17;;;6.10;99.90;;;;;;5070007;28;20196;-75
2022/01/10 01:34:08;;;;;;;5.73;2.90;;;6.00;99.90;;;;;;5069552;28;20558;-74
2022/01/10 01:36:34;;;;;;;5.60;3.30;;;6.00;99.90;;;;;;5069624;28;20220;-79
2022/01/10 01:39:05;;;;;;;3.93;3.23;;;6.00;99.90;;;;;;5070066;28;20304;-79
2022/01/10 01:43:58;;;;;;;6.23;3.43;;;6.10;99.90;;;;;;5071798;28;20246;-78
2022/01/10 01:46:25;;;;;;;4.57;3.37;;;6.10;99.90;;;;;;5071972;28;20593;-79
2022/01/10 01:48:52;;;;;;;6.67;3.80;;;6.10;99.90;;;;;;5036459;28;20208;-79
2022/01/10 01:51:19;;;;;;;10.93;3.73;;;6.10;99.90;;;;;;5053245;28;20757;-74
2022/01/10 01:53:47;;;;;;;9.53;3.40;;;6.10;99.90;;;;;;5036751;28;20305;-80
2022/01/10 01:56:14;;;;;;;4.97;3.50;;;6.20;99.90;;;;;;5070905;28;20726;-75
2022/01/10 01:58:41;;;;;;;5.93;3.63;;;6.10;99.90;;;;;;5053383;28;20235;-79
2022/01/10 02:01:08;;;;;;;10.60;3.87;;;6.00;99.90;;;;;;5036436;28;20235;-74
2022/01/10 02:03:38;;;;;;;6.00;3.53;;;6.00;99.90;;;;;;5053005;28;20196;-74
2022/01/10 02:06:06;;;;;;;9.77;3.90;;;5.90;99.90;;;;;;5083664;28;20207;-79
2022/01/10 02:08:34;;;;;;;7.57;3.77;;;5.90;99.90;;;;;;5069643;28;20212;-79
2022/01/10 02:11:01;;;;;;;6.20;3.77;;;5.90;99.90;;;;;;5034273;28;21053;-74
2022/01/10 02:13:27;;;;;;;6.50;3.80;;;5.90;99.90;;;;;;5066195;28;20180;-79
2022/01/10 02:16:16;;;;;;;5.93;4.00;;;5.90;99.90;;;;;;5067871;28;20214;-74
2022/01/10 02:18:42;;;;;;;6.30;4.17;;;5.90;99.90;;;;;;5064429;28;20208;-79
2022/01/10 02:21:09;;;;;;;5.80;4.07;;;5.90;99.90;;;;;;5065373;28;20724;-77
2022/01/10 02:23:36;;;;;;;7.57;4.50;;;5.90;99.90;;;;;;5031916;28;20227;-77
2022/01/10 02:26:03;;;;;;;7.13;4.40;;;6.00;99.90;;;;;;5050019;28;20654;-80
2022/01/10 02:28:29;;;;;;;6.77;3.70;;;6.00;99.90;;;;;;5050554;28;20230;-78
2022/01/10 02:30:57;;;;;;;7.83;4.20;;;6.00;99.90;;;;;;5068969;28;20246;-74
2022/01/10 02:33:30;;;;;;;7.10;4.03;;;6.00;99.90;;;;;;5066694;28;20232;-75
2022/01/10 02:38:29;;;;;;;8.53;4.07;;;6.10;99.90;;;;;;5068719;28;20196;-79
2022/01/10 02:40:57;;;;;;;6.57;4.07;;;6.10;99.90;;;;;;5068712;28;20192;-79
2022/01/10 02:43:23;;;;;;;8.40;4.37;;;6.10;99.90;;;;;;5069439;28;20610;-80
2022/01/10 02:45:49;;;;;;;11.17;4.70;;;6.10;99.90;;;;;;5068677;28;20204;-81
2022/01/10 02:48:14;;;;;;;9.27;4.40;;;6.10;99.90;;;;;;5068869;28;20199;-79
2022/01/10 02:50:40;;;;;;;8.60;4.13;;;6.10;99.90;;;;;;5069809;28;20265;-79
2022/01/10 02:53:06;;;;;;;7.27;4.20;;;5.90;99.90;;;;;;5052248;28;20208;-79
2022/01/10 02:55:35;;;;;;;8.47;4.70;;;5.70;99.90;;;;;;5068338;28;20565;-80
2022/01/10 02:58:01;;;;;;;6.90;3.87;;;5.60;99.90;;;;;;5069783;28;20753;-79
2022/01/10 03:00:27;;;;;;;7.27;3.80;;;5.50;99.90;;;;;;5035415;28;20200;-74
2022/01/10 03:02:55;;;;;;;9.67;4.37;;;5.70;99.90;;;;;;5070570;28;20180;-79
2022/01/10 03:05:22;;;;;;;7.13;4.10;;;5.90;99.90;;;;;;5068372;28;20215;-75
2022/01/10 03:07:50;;;;;;;8.00;4.23;;;6.10;99.90;;;;;;5068233;28;20246;-74
2022/01/10 03:10:16;;;;;;;7.30;4.00;;;6.10;99.90;;;;;;5070015;28;20197;-75
2022/01/10 03:12:42;;;;;;;9.97;4.70;;;6.20;99.90;;;;;;5068632;28;20207;-74
2022/01/10 03:15:09;;;;;;;5.53;3.57;;;6.00;99.90;;;;;;5068708;28;20216;-74
2022/01/10 03:17:36;;;;;;;7.07;4.33;;;6.10;99.90;;;;;;5068920;28;20213;-80
2022/01/10 03:20:04;;;;;;;8.90;4.60;;;6.10;99.90;;;;;;5069446;28;20284;-78
2022/01/10 03:22:31;;;;;;;9.47;4.13;;;6.00;99.90;;;;;;5053747;28;20206;-79
2022/01/10 03:24:59;;;;;;;10.40;4.47;;;6.00;99.90;;;;;;5068923;28;20193;-79
2022/01/10 03:27:28;;;;;;;8.73;4.70;;;6.10;99.90;;;;;;5052453;28;20273;-74
2022/01/10 03:29:57;;;;;;;7.60;4.37;;;6.10;99.90;;;;;;5035468;28;20188;-75
2022/01/10 03:32:23;;;;;;;7.97;4.57;;;6.10;99.90;;;;;;5055848;28;20204;-74
2022/01/10 03:34:49;;;;;;;7.47;4.97;;;6.00;99.90;;;;;;5055553;28;20295;-79
2022/01/10 03:37:15;;;;;;;7.13;4.20;;;5.90;99.90;;;;;;5072079;28;20275;-74
2022/01/10 03:39:41;;;;;;;6.27;4.17;;;5.70;99.90;;;;;;5055722;28;20192;-73
2022/01/10 03:42:07;;;;;;;9.57;4.20;;;5.40;99.90;;;;;;5055214;28;20232;-74
2022/01/10 03:44:33;;;;;;;8.50;4.33;;;5.20;99.90;;;;;;5073813;28;20199;-75
2022/01/10 03:46:59;;;;;;;9.90;4.83;;;5.00;99.90;;;;;;5055252;28;20197;-79
2022/01/10 03:49:25;;;;;;;7.73;4.10;;;5.30;99.90;;;;;;5073543;28;20226;-74
2022/01/10 03:51:51;;;;;;;5.90;3.80;;;5.30;99.90;;;;;;5072269;28;20329;-75
2022/01/10 03:54:17;;;;;;;6.13;3.83;;;5.60;99.90;;;;;;5075981;28;20220;-79
2022/01/10 03:56:43;;;;;;;8.47;4.20;;;5.60;99.90;;;;;;5072015;28;20249;-78
2022/01/10 03:59:10;;;;;;;10.30;3.80;;;5.90;99.90;;;;;;5055264;28;20595;-79
2022/01/10 04:01:38;;;;;;;6.53;4.20;;;6.10;99.90;;;;;;5072229;28;20215;-75
2022/01/10 04:04:05;;;;;;;9.07;4.23;;;6.10;99.90;;;;;;5071990;28;20211;-74
2022/01/10 04:06:31;;;;;;;7.40;3.77;;;6.10;99.90;;;;;;5038550;28;20208;-75
2022/01/10 04:08:56;;;;;;;5.57;3.43;;;6.20;99.90;;;;;;5070775;28;20206;-73
2022/01/10 04:11:22;;;;;;;7.90;4.00;;;6.10;99.90;;;;;;5070753;28;20765;-74
2022/01/10 04:13:48;;;;;;;7.30;3.67;;;6.20;99.90;;;;;;5068664;28;21028;-80
2022/01/10 04:16:14;;;;;;;6.50;3.87;;;6.20;99.90;;;;;;5069149;28;20832;-75
2022/01/10 04:18:39;;;;;;;7.00;4.10;;;6.20;99.90;;;;;;5069469;28;20276;-74
2022/01/10 04:21:06;;;;;;;6.00;3.67;;;6.20;99.90;;;;;;5070022;28;20611;-74
2022/01/10 04:23:32;;;;;;;5.77;3.10;;;6.30;99.90;;;;;;5069706;28;20227;-76
2022/01/10 04:25:59;;;;;;;5.63;3.00;;;6.30;99.90;;;;;;5070259;28;20232;-78
2022/01/10 04:28:25;;;;;;;5.93;3.47;;;6.20;99.90;;;;;;5071801;28;20181;-80
2022/01/10 04:30:51;;;;;;;5.77;2.83;;;6.20;99.90;;;;;;5038153;28;20208;-75
2022/01/10 04:33:18;;;;;;;4.87;2.90;;;6.20;99.90;;;;;;5072897;28;20211;-74
2022/01/10 04:35:45;;;;;;;5.77;2.93;;;6.20;99.90;;;;;;5070966;28;20689;-79
2022/01/10 04:38:11;;;;;;;5.87;2.60;;;6.10;99.90;;;;;;5072768;28;20203;-74
2022/01/10 04:40:38;;;;;;;4.07;2.90;;;6.20;99.90;;;;;;5071208;28;20641;-74
2022/01/10 04:43:04;;;;;;;7.33;3.10;;;6.10;99.90;;;;;;5070245;28;20249;-75
2022/01/10 04:45:31;;;;;;;5.60;2.80;;;6.10;99.90;;;;;;5070884;28;20196;-75
2022/01/10 04:47:57;;;;;;;6.33;3.10;;;6.10;99.90;;;;;;5071610;28;20682;-79
2022/01/10 04:52:52;;;;;;;5.37;3.00;;;5.90;99.90;;;;;;5071189;28;20675;-75
2022/01/10 04:55:19;;;;;;;4.60;2.70;;;5.90;99.90;;;;;;5071060;28;20189;-80
2022/01/10 04:57:46;;;;;;;7.20;3.10;;;5.90;99.90;;;;;;5072122;28;20304;-74
2022/01/10 05:00:14;;;;;;;4.70;3.00;;;6.10;99.90;;;;;;5071970;28;20204;-79
2022/01/10 05:02:42;;;;;;;5.70;3.10;;;6.10;99.90;;;;;;5072443;28;20648;-79
2022/01/10 05:05:08;;;;;;;4.70;3.57;;;6.10;99.90;;;;;;5071052;28;20659;-79
2022/01/10 05:07:34;;;;;;;5.73;3.10;;;6.10;99.90;;;;;;5070647;28;20191;-73
2022/01/10 05:09:59;;;;;;;7.03;3.30;;;6.10;99.90;;;;;;5071035;28;20590;-73
2022/01/10 05:12:27;;;;;;;7.90;3.47;;;6.10;99.90;;;;;;5071975;28;20661;-74
2022/01/10 05:14:53;;;;;;;7.27;3.43;;;6.10;99.90;;;;;;5070238;28;20249;-76
2022/01/10 05:17:21;;;;;;;7.43;4.10;;;6.10;99.90;;;;;;5070443;28;20220;-75
2022/01/10 05:19:47;;;;;;;6.03;3.37;;;6.00;99.90;;;;;;5071743;28;20200;-75
2022/01/10 05:22:13;;;;;;;8.10;3.83;;;6.00;99.90;;;;;;5053574;28;20261;-78
2022/01/10 05:24:38;;;;;;;8.83;4.40;;;6.00;99.90;;;;;;5070788;28;20219;-79
2022/01/10 05:27:04;;;;;;;5.87;3.93;;;6.00;99.90;;;;;;5053629;28;20651;-79
2022/01/10 05:29:30;;;;;;;7.07;4.53;;;6.00;99.90;;;;;;5070460;28;20275;-75
2022/01/10 05:31:56;;;;;;;7.20;4.20;;;6.10;99.90;;;;;;5072054;28;20275;-77
2022/01/10 05:34:22;;;;;;;6.53;3.77;;;6.10;99.90;;;;;;5070297;28;20204;-79
2022/01/10 05:36:48;;;;;;;6.60;4.50;;;6.10;99.90;;;;;;5071393;28;20649;-74
2022/01/10 05:39:15;;;;;;;6.60;4.07;;;6.00;99.90;;;;;;5070012;28;20220;-79
2022/01/10 05:41:41;;;;;;;7.43;4.93;;;6.00;99.90;;;;;;5053693;28;20581;-78
2022/01/10 05:44:07;;;;;;;6.87;4.47;;;6.00;99.90;;;;;;5070292;28;20184;-78
2022/01/10 05:46:37;;;;;;;8.27;4.73;;;6.00;99.90;;;;;;5069818;28;20195;-79
2022/01/10 05:49:03;;;;;;;6.90;4.20;;;5.90;99.90;;;;;;5070255;28;20206;-74
2022/01/10 05:51:34;;;;;;;8.60;4.80;;;5.90;99.90;;;;;;5071323;28;20192;-79
2022/01/10 05:54:01;;;;;;;5.83;4.07;;;5.90;99.90;;;;;;5053591;28;20551;-79
2022/01/10 05:56:27;;;;;;;9.47;5.57;;;6.00;99.90;;;;;;5053271;28;20216;-74
2022/01/10 05:58:53;;;;;;;8.40;4.80;;;6.00;99.90;;;;;;5053023;28;20250;-80
2022/01/10 06:01:19;;;;;;;13.50;5.07;;;6.00;99.90;;;;;;5070083;28;20530;-78
2022/01/10 06:03:45;;;;;;;6.90;4.63;;;5.90;99.90;;;;;;5053815;28;20207;-80
2022/01/10 06:06:11;;;;;;;6.50;4.50;;;6.00;99.90;;;;;;5069325;28;20208;-78
2022/01/10 06:08:37;;;;;;;6.53;4.47;;;6.00;99.90;;;;;;5052337;28;20667;-79
2022/01/10 06:11:03;;;;;;;9.87;5.10;;;6.10;99.90;;;;;;5069045;28;20569;-75
2022/01/10 06:13:28;;;;;;;8.03;4.87;;;6.10;99.90;;;;;;5068816;28;20250;-79
2022/01/10 06:15:55;;;;;;;9.73;4.97;;;6.10;99.90;;;;;;5068561;28;20277;-79
2022/01/10 06:18:20;;;;;;;10.50;5.10;;;6.10;99.90;;;;;;5070197;28;20211;-75
2022/01/10 06:20:46;;;;;;;7.27;4.80;;;6.20;99.90;;;;;;5069531;28;20192;-78
2022/01/10 06:23:12;;;;;;;8.30;5.07;;;6.20;99.90;;;;;;5086252;28;20187;-79
2022/01/10 06:25:39;;;;;;;13.67;4.83;;;6.20;99.90;;;;;;5070544;28;20261;-79
2022/01/10 06:28:06;;;;;;;11.53;5.47;;;6.10;99.90;;;;;;5070877;28;20790;-79
2022/01/10 06:30:32;;;;;;;12.27;5.80;;;6.10;99.90;;;;;;5070195;28;20204;-79
2022/01/10 06:32:57;;;;;;;10.70;5.50;;;6.10;99.90;;;;;;5052088;28;20675;-75
2022/01/10 06:35:24;;;;;;;9.90;5.57;;;6.10;99.90;;;;;;5032490;28;20200;-80
2022/01/10 06:37:50;;;;;;;12.00;5.93;;;6.10;99.90;;;;;;5062558;28;20220;-78
2022/01/10 06:40:17;;;;;;;9.70;5.57;;;6.10;99.90;;;;;;5068523;28;20247;-74
2022/01/10 06:42:43;;;;;;;11.10;6.07;;;6.00;99.90;;;;;;5068342;28;20196;-74
2022/01/10 06:45:10;;;;;;;9.13;5.50;;;6.00;99.90;;;;;;5066103;28;20614;-75
2022/01/10 06:47:37;;;;;;;12.33;5.50;;;6.00;99.90;;;;;;5068102;28;20667;-74
2022/01/10 06:50:04;;;;;;;10.40;6.00;;;5.80;99.90;;;;;;5083229;28;20755;-79
2022/01/10 06:52:31;;;;;;;11.40;5.77;;;5.90;99.90;;;;;;5066509;28;20810;-73
2022/01/10 06:54:56;;;;;;;9.83;5.57;;;5.90;99.90;;;;;;5083158;28;20177;-74
2022/01/10 06:57:22;;;;;;;11.40;6.10;;;5.90;99.90;;;;;;5066617;28;20270;-78
2022/01/10 06:59:48;;;;;;;11.40;6.50;;;6.00;99.90;;;;;;5067688;28;20224;-75
2022/01/10 07:02:15;;;;;;;14.27;7.03;;;6.00;99.90;;;;;;5068879;28;20228;-78
2022/01/10 07:04:41;;;;;;;13.63;7.07;;;6.00;99.90;;;;;;5051570;28;20239;-75
2022/01/10 07:07:07;;;;;;;10.13;6.40;;;6.00;99.90;;;;;;5072190;28;20196;-74
2022/01/10 07:09:33;;;;;;;14.40;7.07;;;6.00;99.90;;;;;;5071652;28;20290;-81
2022/01/10 07:11:59;;;;;;;13.43;7.10;;;6.00;99.90;;;;;;5088656;28;20192;-78
2022/01/10 07:14:25;;;;;;;10.80;5.97;;;6.00;99.90;;;;;;5072126;28;20210;-79
2022/01/10 07:16:51;;;;;;;10.73;6.00;;;6.00;99.90;;;;;;5055485;28;20211;-73
2022/01/10 07:19:18;;;;;;;8.67;5.90;;;6.00;99.90;;;;;;5073101;28;21005;-75
2022/01/10 07:21:44;;;;;;;12.73;6.70;;;6.00;99.90;;;;;;5072152;28;20222;-78
2022/01/10 07:24:10;;;;;;;13.50;7.23;;;5.90;99.90;;;;;;5055891;28;20624;-75
2022/01/10 07:26:36;;;;;;;17.63;7.00;;;5.90;99.90;;;;;;5073766;28;20195;-78
2022/01/10 07:29:04;;;;;;;10.70;6.10;;;5.90;99.90;;;;;;5070827;28;20247;-74
2022/01/10 07:31:29;;;;;;;14.43;6.30;;;5.90;99.90;;;;;;5089181;28;20279;-74
2022/01/10 07:33:58;;;;;;;14.25;8.23;;;6.00;99.90;;;;;;5069646;28;20969;-74
2022/01/10 07:36:25;;;;;;;12.93;6.97;;;5.90;99.90;;;;;;5073236;28;20223;-78
2022/01/10 07:38:50;;;;;;;12.00;6.77;;;6.00;99.90;;;;;;5073072;28;20200;-79
2022/01/10 07:41:16;;;;;;;9.20;5.90;;;5.90;99.90;;;;;;5073425;28;20691;-74
2022/01/10 07:43:42;;;;;;;11.03;6.13;;;6.00;99.90;;;;;;5055301;28;20671;-80
2022/01/10 07:46:08;;;;;;;9.10;5.70;;;6.00;99.90;;;;;;5055316;28;20208;-73
2022/01/10 07:48:36;;;;;;;12.93;6.07;;;6.10;99.90;;;;;;5072039;28;20196;-74
2022/01/10 07:51:03;;;;;;;10.40;6.73;;;6.10;99.90;;;;;;5071902;28;20176;-74
2022/01/10 07:53:29;;;;;;;13.57;6.37;;;6.10;99.90;;;;;;5073064;28;20211;-78
2022/01/10 07:55:55;;;;;;;10.47;6.37;;;6.10;99.90;;;;;;5071673;28;20232;-78
2022/01/10 07:58:21;;;;;;;15.57;6.03;;;6.00;99.90;;;;;;5073373;28;20630;-74
2022/01/10 08:00:47;;;;;;;10.13;5.70;;;5.90;99.90;;;;;;5070994;28;20211;-78
2022/01/10 08:03:14;;;;;;;13.33;6.70;;;5.90;99.90;;;;;;5038623;28;20202;-74
2022/01/10 08:05:40;;;;;;;13.30;7.33;;;5.90;99.90;;;;;;5043843;28;20209;-74
2022/01/10 08:08:06;;;;;;;11.73;7.37;;;5.90;99.90;;;;;;5035114;28;20201;-74
2022/01/10 08:10:32;;;;;;;11.63;7.07;;;5.90;99.90;;;;;;5053720;28;20261;-78
2022/01/10 08:12:58;;;;;;;15.90;8.90;;;5.90;99.90;;;;;;5053998;28;20196;-79
2022/01/10 08:15:23;;;;;;;13.67;7.37;;;6.00;99.90;;;;;;5065830;28;20204;-76
2022/01/10 08:17:49;;;;;;;11.43;7.23;;;6.10;99.90;;;;;;5069700;28;20265;-75
2022/01/10 08:20:15;;;;;;;12.57;8.30;;;6.10;99.90;;;;;;5071287;28;20196;-74
2022/01/10 08:22:44;;;;;;;13.30;8.00;;;6.20;99.90;;;;;;5070355;28;20208;-74
2022/01/10 08:25:10;;;;;;;17.43;8.80;;;6.10;99.90;;;;;;5053194;28;20200;-80
2022/01/10 08:27:36;;;;;;;11.33;8.00;;;6.00;99.90;;;;;;5070980;28;20266;-78
2022/01/10 08:30:06;;;;;;;14.83;8.20;;;6.00;99.90;;;;;;5072506;28;20211;-78
2022/01/10 08:32:31;;;;;;;15.30;8.43;;;6.10;99.90;;;;;;5088170;28;20220;-73
2022/01/10 08:34:57;;;;;;;12.20;7.83;;;6.10;99.90;;;;;;5088105;28;20231;-81
2022/01/10 08:37:24;;;;;;;14.83;9.33;;;6.10;99.90;;;;;;5070031;28;20267;-80
2022/01/10 08:39:51;;;;;;;14.53;8.60;;;6.10;99.90;;;;;;5072521;28;20200;-81
2022/01/10 08:42:22;;;;;;;15.23;8.30;;;6.00;99.90;;;;;;5073704;28;20307;-80
2022/01/10 08:44:49;;;;;;;12.53;8.37;;;6.00;99.90;;;;;;5071074;28;20188;-77
2022/01/10 08:47:15;;;;;;;14.83;9.43;;;6.10;99.90;;;;;;5053738;28;20692;-74
2022/01/10 08:49:42;;;;;;;16.93;8.97;;;6.20;99.90;;;;;;5070230;28;20643;-75
2022/01/10 08:52:09;;;;;;;15.63;8.27;;;6.30;99.90;;;;;;5070551;28;20204;-73
2022/01/10 08:54:36;;;;;;;18.90;8.30;;;6.30;99.90;;;;;;5071990;28;20192;-72
2022/01/10 08:57:04;;;;;;;12.20;7.40;;;6.40;99.90;;;;;;5069835;28;20650;-79
2022/01/10 08:59:30;;;;;;;11.47;7.17;;;6.30;99.90;;;;;;5072175;28;20197;-77
2022/01/10 09:01:57;;;;;;;11.53;7.10;;;6.30;99.90;;;;;;5070733;28;20207;-78
2022/01/10 09:04:23;;;;;;;10.53;7.50;;;6.40;99.90;;;;;;5086407;28;20208;-75
2022/01/10 09:06:52;;;;;;;15.07;7.97;;;6.40;99.90;;;;;;5069324;28;20249;-78
2022/01/10 09:09:19;;;;;;;11.03;7.20;;;6.40;99.90;;;;;;5069950;28;20199;-79
2022/01/10 09:11:45;;;;;;;12.03;7.03;;;6.50;99.90;;;;;;5070350;28;20207;-74
2022/01/10 09:14:12;;;;;;;14.30;7.20;;;6.30;99.90;;;;;;5053805;28;20295;-79
2022/01/10 09:16:38;;;;;;;11.67;7.20;;;6.20;99.90;;;;;;5070150;28;20208;-79
2022/01/10 09:19:04;;;;;;;15.13;7.77;;;6.30;99.90;;;;;;5086764;28;20232;-73
2022/01/10 09:21:30;;;;;;;15.00;8.63;;;6.30;99.90;;;;;;5071459;28;20227;-74
2022/01/10 09:23:56;;;;;;;14.83;9.03;;;6.30;99.90;;;;;;5071744;28;20214;-73
2022/01/10 09:26:22;;;;;;;15.80;8.63;;;6.30;99.90;;;;;;5054023;28;20250;-77
2022/01/10 09:28:48;;;;;;;16.23;8.67;;;6.30;99.90;;;;;;5071120;28;20247;-78
2022/01/10 09:31:15;;;;;;;14.03;8.27;;;6.30;99.90;;;;;;5037004;28;20209;-75
2022/01/10 09:33:42;;;;;;;14.67;8.50;;;6.30;99.90;;;;;;5051548;28;20299;-78
2022/01/10 09:36:08;;;;;;;13.37;8.53;;;6.30;99.90;;;;;;5065057;28;20231;-75
2022/01/10 09:38:34;;;;;;;12.47;7.53;;;6.40;99.90;;;;;;5070896;28;20234;-74
2022/01/10 09:41:01;;;;;;;12.03;7.93;;;6.40;99.90;;;;;;5054013;28;20207;-74
2022/01/10 09:43:26;;;;;;;12.37;7.43;;;6.50;99.90;;;;;;5072534;28;20211;-74
2022/01/10 09:45:54;;;;;;;13.07;8.00;;;6.40;99.90;;;;;;5070546;28;20579;-79
2022/01/10 09:48:20;;;;;;;15.03;8.57;;;6.40;99.90;;;;;;5054592;28;20208;-73
2022/01/10 09:50:47;;;;;;;12.00;7.90;;;6.50;99.90;;;;;;5064319;28;20275;-79
2022/01/10 09:53:17;;;;;;;13.70;7.87;;;6.50;99.90;;;;;;5056087;28;20217;-75
2022/01/10 09:55:43;;;;;;;13.70;8.20;;;6.30;99.90;;;;;;5071821;28;20261;-76
2022/01/10 09:58:09;;;;;;;14.77;8.67;;;6.50;99.90;;;;;;5072226;28;20204;-80
2022/01/10 10:00:35;;;;;;;10.33;6.33;;;6.60;99.90;;;;;;5073185;28;20204;-74
2022/01/10 10:03:04;;;;;;;9.97;6.53;;;6.70;99.90;;;;;;5071468;28;20212;-75
2022/01/10 10:05:30;;;;;;;14.80;8.10;;;6.60;99.90;;;;;;5063917;28;20567;-74
2022/01/10 10:07:56;;;;;;;14.03;7.73;;;6.60;99.90;;;;;;5068509;28;20283;-74
2022/01/10 10:10:22;;;;;;;11.27;6.03;;;6.70;99.90;;;;;;5070819;28;20283;-76
2022/01/10 10:12:50;;;;;;;11.50;6.87;;;6.60;99.90;;;;;;5070986;28;20251;-76
2022/01/10 10:15:21;;;;;;;15.20;9.07;;;6.70;99.90;;;;;;5071341;28;20219;-75
2022/01/10 10:17:47;;;;;;;15.20;7.27;;;6.80;99.90;;;;;;5066953;28;20272;-74
2022/01/10 10:20:16;;;;;;;13.40;8.07;;;6.80;99.90;;;;;;5069078;28;20204;-76
2022/01/10 10:22:44;;;;;;;12.73;7.07;;;6.70;99.90;;;;;;5052484;28;20604;-79
2022/01/10 10:25:11;;;;;;;16.30;7.93;;;6.80;99.90;;;;;;5034910;28;20200;-81
2022/01/10 10:27:43;;;;;;;14.77;7.87;;;6.80;99.90;;;;;;5068967;28;20297;-78
2022/01/10 10:30:31;;;;;;;11.93;7.70;;;6.80;99.90;;;;;;5069453;28;20211;-78
2022/01/10 10:33:16;;;;;;;12.43;7.00;;;6.60;99.90;;;;;;5067646;28;20200;-79
2022/01/10 10:35:43;;;;;;;12.33;7.60;;;6.60;99.90;;;;;;5052648;28;20350;-80
2022/01/10 10:38:10;;;;;;;13.20;7.23;;;6.70;99.90;;;;;;5053267;28;20216;-77
2022/01/10 10:40:40;;;;;;;14.50;7.07;;;6.60;99.90;;;;;;5068904;28;20208;-74
2022/01/10 10:43:07;;;;;;;14.03;7.53;;;6.60;99.90;;;;;;5072962;28;20235;-79
2022/01/10 10:45:33;;;;;;;10.90;7.17;;;6.50;99.90;;;;;;5056654;28;20675;-74
2022/01/10 10:48:05;;;;;;;14.70;8.00;;;6.50;99.90;;;;;;5058031;28;20204;-77
2022/01/10 10:50:34;;;;;;;10.27;7.07;;;6.50;99.90;;;;;;5056858;28;20711;-73
2022/01/10 10:53:04;;;;;;;11.47;7.17;;;6.50;99.90;;;;;;5056454;28;20362;-76
2022/01/10 10:55:32;;;;;;;12.10;7.53;;;6.60;99.90;;;;;;5072414;28;20180;-74
2022/01/10 10:57:59;;;;;;;10.57;6.73;;;6.60;99.90;;;;;;5058503;28;20204;-79
2022/01/10 11:00:25;;;;;;;14.80;6.77;;;6.60;99.90;;;;;;5063885;28;20675;-74
2022/01/10 11:02:51;;;;;;;11.87;6.67;;;6.60;99.90;;;;;;5055843;28;20290;-74
2022/01/10 11:05:17;;;;;;;12.47;7.10;;;6.70;99.90;;;;;;5074303;28;20288;-75
2022/01/10 11:07:43;;;;;;;13.43;6.67;;;6.70;99.90;;;;;;5089862;28;20557;-75
2022/01/10 11:10:09;;;;;;;8.50;5.47;;;6.80;99.90;;;;;;5071379;28;20196;-76
2022/01/10 11:12:41;;;;;;;7.97;5.83;;;6.40;99.90;;;;;;5073479;28;20240;-78
2022/01/10 11:15:08;;;;;;;10.47;6.30;;;6.20;99.90;;;;;;5070998;28;20208;-74
2022/01/10 11:17:39;;;;;;;10.17;5.73;;;6.20;99.90;;;;;;5055791;28;20220;-78
2022/01/10 11:20:25;;;;;;;13.40;6.60;;;6.30;99.90;;;;;;5056732;28;20231;-78
2022/01/10 11:22:54;;;;;;;12.47;5.67;;;6.60;99.90;;;;;;5066688;28;20260;-75
2022/01/10 11:25:23;;;;;;;8.87;5.97;;;6.60;99.90;;;;;;5079400;28;20262;-74
2022/01/10 11:27:51;;;;;;;10.27;5.50;;;6.80;99.90;;;;;;5072628;28;20242;-78
2022/01/10 11:30:36;;;;;;;7.70;5.20;;;6.60;99.90;;;;;;5072327;28;20204;-76
2022/01/10 11:33:08;;;;;;;8.73;5.33;;;6.60;99.90;;;;;;5059740;28;20249;-74
2022/01/10 11:35:45;;;;;;;9.27;6.30;;;6.80;99.90;;;;;;5071092;28;20204;-73
2022/01/10 11:38:18;;;;;;;10.93;5.90;;;6.90;99.90;;;;;;5056604;28;20207;-77
2022/01/10 11:40:49;;;;;;;15.47;6.23;;;7.20;99.90;;;;;;5074510;28;20196;-73
2022/01/10 11:43:52;;;;;;;9.43;5.80;;;6.90;99.90;;;;;;5073808;28;20205;-73
2022/01/10 11:46:28;;;;;;;9.37;5.53;;;7.10;99.90;;;;;;5074337;28;20199;-78
2022/01/10 11:48:58;;;;;;;13.13;5.97;;;7.30;99.90;;;;;;5067792;28;20249;-74
2022/01/10 11:51:34;;;;;;;9.07;5.07;;;7.60;99.90;;;;;;5072506;28;20196;-77
2022/01/10 11:54:37;;;;;;;8.63;5.13;;;7.60;99.90;;;;;;5070674;28;20185;-78
2022/01/10 11:57:06;;;;;;;9.07;5.23;;;7.50;99.90;;;;;;5071292;28;20216;-78
2022/01/10 11:59:37;;;;;;;8.83;4.77;;;7.50;99.90;;;;;;5072403;28;20192;-76
2022/01/10 12:02:14;;;;;;;12.30;5.17;;;7.60;99.90;;;;;;5055615;28;20207;-76
2022/01/10 12:04:49;;;;;;;10.27;5.63;;;7.60;99.90;;;;;;5084975;28;20231;-76
2022/01/10 12:07:17;;;;;;;8.27;5.20;;;7.60;99.90;;;;;;5054173;28;20203;-78
2022/01/10 12:09:47;;;;;;;11.10;5.87;;;7.50;99.90;;;;;;5055095;28;20200;-78
2022/01/10 12:12:19;;;;;;;12.37;6.23;;;7.40;99.90;;;;;;5055099;28;20215;-74
2022/01/10 12:14:47;;;;;;;11.40;5.13;;;7.40;99.90;;;;;;5058453;28;20296;-76
2022/01/10 12:17:14;;;;;;;9.37;5.10;;;7.50;99.90;;;;;;5063713;28;20223;-79
2022/01/10 12:19:41;;;;;;;9.27;5.93;;;7.50;99.90;;;;;;5073783;28;20193;-78
2022/01/10 12:22:08;;;;;;;15.30;7.43;;;7.50;99.90;;;;;;5071265;28;20735;-74
2022/01/10 12:24:35;;;;;;;8.43;5.63;;;7.40;99.90;;;;;;5065944;28;20237;-78
2022/01/10 12:27:06;;;;;;;12.40;5.87;;;7.20;99.90;;;;;;5089748;28;20623;-78
2022/01/10 12:29:33;;;;;;;12.57;6.00;;;7.40;99.90;;;;;;5071546;28;20203;-74
2022/01/10 12:32:00;;;;;;;12.10;6.60;;;7.40;99.90;;;;;;5055041;28;20871;-78
2022/01/10 12:34:26;;;;;;;11.97;5.60;;;7.40;99.90;;;;;;5072224;28;20270;-73
2022/01/10 12:36:53;;;;;;;12.97;6.27;;;7.50;99.90;;;;;;5072913;28;20200;-78
2022/01/10 12:39:26;;;;;;;8.60;5.80;;;7.40;99.90;;;;;;5076318;28;20667;-77
2022/01/10 12:41:53;;;;;;;10.87;6.57;;;7.30;99.90;;;;;;5057356;28;20243;-78
2022/01/10 12:44:20;;;;;;;15.30;5.80;;;7.30;99.90;;;;;;5060697;28;20193;-77
2022/01/10 12:46:46;;;;;;;12.43;6.37;;;7.20;99.90;;;;;;5052750;28;20211;-77
2022/01/10 12:49:16;;;;;;;13.63;6.23;;;7.10;99.90;;;;;;5072636;28;20199;-74
2022/01/10 12:51:45;;;;;;;10.93;7.43;;;7.10;99.90;;;;;;5072613;28;20253;-75
2022/01/10 12:54:20;;;;;;;12.00;6.73;;;7.10;99.90;;;;;;5064404;28;20830;-74
2022/01/10 12:56:47;;;;;;;10.30;6.23;;;7.10;99.90;;;;;;5070191;28;20287;-77
2022/01/10 12:59:18;;;;;;;13.33;6.73;;;7.20;99.90;;;;;;5071312;28;20571;-74
2022/01/10 13:01:45;;;;;;;15.90;7.17;;;7.10;99.90;;;;;;5071154;28;20203;-74
2022/01/10 13:04:12;;;;;;;12.30;7.33;;;7.20;99.90;;;;;;5071811;28;20199;-74
2022/01/10 13:06:43;;;;;;;12.43;8.00;;;7.30;99.90;;;;;;5070595;28;20342;-76
2022/01/10 13:09:10;;;;;;;10.57;7.30;;;7.30;99.90;;;;;;5072194;28;20686;-74
2022/01/10 13:11:48;;;;;;;11.00;6.77;;;7.30;99.90;;;;;;5072487;28;20283;-80
2022/01/10 13:14:16;;;;;;;13.13;7.43;;;7.30;99.90;;;;;;5072173;28;20540;-75